logo
Search for airport 
image banner adimage banner adimage banner ad
image banner ad

LJKOC - Kocevje

Located in Novi Lazi, Slovenia

ICAO - , IATA -

Data provided by Airmate  

General information

Coordinates: N45°34'12" E14°51'30"
Elevation is 1765 feet MSL.
Magnetic variation is 4° East
View others Airports in Jovevje

Operational data

Special qualification required
Current time UTC:
Current local time:
Weather at : LDRI - Rijeka / Krk I ( 45 km )
METAR: LDRI 141730Z 25004KT 170V290 CAVOK 31/17 Q1011
TAF: TAF LDRI 141725Z 1418/1518 VRB02KT CAVOK TX34/1514Z TN23/1503Z PROB30 TEMPO 1510/1513 32006KT
View NOTAMs / SUP AIP / TFR affecting this airport [VIEW]
Communications frequencies: [VIEW]

Runways:

RWY identifierQFULength (ft)Width (ft)SurfaceLDA (ft)
33331°128599GRAS984
15151°128599GRAS984

Airport contact information

Address: Novi Lazi Slovenia

Satellite view of LJKOC